Time;durP1;ratioP1;P1;durP2;ratioP2;P2;SDS_P1;SDS_P2;PMS_P1;PMS_P2;Temp;Humidity;BMP_temperature;BMP_pressure;BME280_temperature;BME280_humidity;BME280_pressure;Samples;Min_cycle;Max_cycle;Signal;HPM_P1;HPM_P2
2024/01/16 00:14:57;;;;;;;5.65;3.50;;;;;;;;;;5080655;22;20094;-92
2024/01/16 00:18:12;;;;;;;;;;;;;;;;;;;;;
2024/01/16 00:23:11;;;;;;;;;;;;;;;;;;;;;
2024/01/16 00:28:47;;;;;;;8.00;3.28;;;;;;;;;;5094580;28;20033;-92
2024/01/16 00:36:22;;;;;;;10.23;3.30;;;;;;;;;;5085317;22;20061;-90
2024/01/16 00:38:47;;;;;;;5.67;3.37;;;;;;;;;;5098646;28;20081;-90
2024/01/16 00:41:14;;;;;;;11.37;3.60;;;;;;;;;;5109424;28;20050;-91
2024/01/16 00:43:40;;;;;;;7.07;2.87;;;;;;;;;;5076396;28;20378;-90
2024/01/16 00:46:05;;;;;;;9.35;3.20;;;;;;;;;;5073541;28;20055;-90
2024/01/16 00:48:30;;;;;;;8.60;2.77;;;;;;;;;;5074320;28;20013;-90
2024/01/16 00:56:35;;;;;;;8.30;3.03;;;;;;;;;;5411613;22;20117;-89
2024/01/16 00:59:01;;;;;;;6.60;2.97;;;;;;;;;;5096142;28;20016;-90
2024/01/16 01:01:26;;;;;;;4.60;2.55;;;;;;;;;;5076432;28;20028;-90
2024/01/16 01:03:51;;;;;;;13.07;3.07;;;;;;;;;;5094941;28;20031;-90
2024/01/16 01:06:17;;;;;;;5.60;3.10;;;;;;;;;;5086839;28;20127;-90
2024/01/16 01:08:42;;;;;;;9.40;2.80;;;;;;;;;;5055566;28;20658;-90
2024/01/16 01:11:07;;;;;;;10.50;3.20;;;;;;;;;;5072330;28;20028;-90
2024/01/16 01:13:32;;;;;;;8.43;2.50;;;;;;;;;;5073341;28;20020;-89
2024/01/16 01:15:58;;;;;;;8.33;3.00;;;;;;;;;;5088398;28;20020;-91
2024/01/16 01:18:23;;;;;;;14.77;3.10;;;;;;;;;;5092804;28;20022;-90
2024/01/16 01:20:48;;;;;;;10.25;2.65;;;;;;;;;;5074977;28;20114;-91
2024/01/16 01:23:13;;;;;;;11.83;3.30;;;;;;;;;;5091614;28;20498;-89
2024/01/16 01:25:39;;;;;;;12.73;2.70;;;;;;;;;;5081193;28;20077;-90
2024/01/16 01:28:04;;;;;;;13.37;3.53;;;;;;;;;;5090459;28;20147;-89
2024/01/16 01:30:29;;;;;;;7.03;2.70;;;;;;;;;;5091797;28;20525;-90
2024/01/16 01:32:55;;;;;;;6.37;3.00;;;;;;;;;;5090322;28;20020;-90
2024/01/16 01:35:20;;;;;;;6.37;3.00;;;;;;;;;;5079542;28;20024;-89
2024/01/16 01:37:45;;;;;;;14.80;2.90;;;;;;;;;;5092269;28;20276;-91
2024/01/16 01:40:12;;;;;;;8.70;2.93;;;;;;;;;;5093640;28;20026;-89
2024/01/16 01:42:37;;;;;;;7.03;2.45;;;;;;;;;;5093740;28;20024;-91
2024/01/16 01:45:03;;;;;;;13.57;2.50;;;;;;;;;;5082460;28;20025;-91
2024/01/16 01:47:29;;;;;;;9.77;2.43;;;;;;;;;;5078392;28;20028;-89
2024/01/16 02:01:45;;;;;;;6.78;1.98;;;;;;;;;;5124639;22;20098;-90
2024/01/16 02:04:12;;;;;;;10.73;2.63;;;;;;;;;;5071325;28;20464;-89
2024/01/16 02:06:38;;;;;;;6.10;2.10;;;;;;;;;;5071067;28;20480;-89
2024/01/16 02:09:06;;;;;;;8.70;2.27;;;;;;;;;;5069333;28;20110;-90
2024/01/16 02:11:32;;;;;;;9.50;2.20;;;;;;;;;;5070577;28;20076;-90
2024/01/16 02:13:57;;;;;;;9.60;2.50;;;;;;;;;;5070507;28;20082;-90
2024/01/16 02:16:23;;;;;;;5.53;2.10;;;;;;;;;;5052558;28;20020;-90
2024/01/16 02:18:49;;;;;;;8.43;1.83;;;;;;;;;;5071644;28;20074;-90
2024/01/16 02:21:19;;;;;;;6.60;1.50;;;;;;;;;;5069877;28;20289;-91
2024/01/16 02:23:44;;;;;;;10.75;2.60;;;;;;;;;;5072053;28;20522;-91
2024/01/16 02:26:09;;;;;;;10.50;2.10;;;;;;;;;;5055557;28;20024;-90
2024/01/16 02:28:35;;;;;;;7.93;2.30;;;;;;;;;;5070804;28;20450;-90
2024/01/16 02:31:00;;;;;;;10.97;2.10;;;;;;;;;;5069907;28;20042;-90
2024/01/16 02:33:25;;;;;;;7.32;1.98;;;;;;;;;;5053576;28;20029;-90
2024/01/16 02:35:50;;;;;;;10.87;1.90;;;;;;;;;;5069558;28;20028;-90
2024/01/16 02:38:16;;;;;;;9.10;2.30;;;;;;;;;;5070603;28;20020;-91
2024/01/16 02:43:16;;;;;;;6.40;1.48;;;;;;;;;;5174580;22;20049;-91
2024/01/16 02:48:44;;;;;;;6.35;2.33;;;;;;;;;;5070899;28;20113;-90
2024/01/16 02:51:10;;;;;;;4.10;1.63;;;;;;;;;;5069962;28;20028;-90
2024/01/16 02:53:35;;;;;;;12.40;2.30;;;;;;;;;;5070367;28;20040;-91
2024/01/16 02:56:00;;;;;;;5.07;2.07;;;;;;;;;;5071003;28;20009;-91
2024/01/16 02:58:26;;;;;;;10.10;2.70;;;;;;;;;;5069465;28;20448;-91
2024/01/16 03:00:52;;;;;;;7.40;2.22;;;;;;;;;;5070035;28;20020;-90
2024/01/16 03:03:18;;;;;;;9.90;2.15;;;;;;;;;;5071125;28;20104;-90
2024/01/16 03:05:44;;;;;;;9.77;2.10;;;;;;;;;;5071542;28;20009;-90
2024/01/16 03:08:09;;;;;;;5.80;2.00;;;;;;;;;;5070479;28;20305;-91
2024/01/16 03:10:35;;;;;;;21.17;2.90;;;;;;;;;;5053597;28;20024;-90
2024/01/16 03:13:00;;;;;;;11.00;2.10;;;;;;;;;;5074694;28;20085;-90
2024/01/16 03:15:25;;;;;;;10.20;2.37;;;;;;;;;;5058561;28;20035;-91
2024/01/16 03:17:50;;;;;;;11.77;2.38;;;;;;;;;;5057227;28;20113;-90
2024/01/16 03:20:18;;;;;;;7.47;2.20;;;;;;;;;;5051386;28;20017;-90
2024/01/16 03:22:44;;;;;;;6.00;2.10;;;;;;;;;;5060735;28;20450;-90
2024/01/16 03:25:10;;;;;;;9.35;2.58;;;;;;;;;;5075578;28;20043;-90
2024/01/16 03:27:35;;;;;;;15.93;2.25;;;;;;;;;;5074570;28;20012;-91
2024/01/16 03:30:02;;;;;;;9.47;1.90;;;;;;;;;;5070456;28;20024;-90
2024/01/16 03:32:27;;;;;;;10.80;1.97;;;;;;;;;;5095185;28;20019;-90
2024/01/16 03:34:52;;;;;;;8.40;2.10;;;;;;;;;;5094928;28;20361;-92
2024/01/16 03:37:17;;;;;;;11.47;2.47;;;;;;;;;;5095683;28;20375;-91
2024/01/16 03:39:44;;;;;;;14.33;3.00;;;;;;;;;;5077330;28;20450;-90
2024/01/16 03:42:09;;;;;;;10.52;2.20;;;;;;;;;;5110839;28;20115;-91
2024/01/16 03:44:38;;;;;;;18.63;2.50;;;;;;;;;;5094431;28;20095;-90
2024/01/16 03:47:03;;;;;;;10.10;2.70;;;;;;;;;;5084787;28;20038;-90
2024/01/16 03:49:28;;;;;;;14.02;2.45;;;;;;;;;;5094678;28;20107;-90
2024/01/16 03:51:53;;;;;;;8.97;2.40;;;;;;;;;;5079028;28;20067;-90
2024/01/16 03:54:19;;;;;;;9.90;2.53;;;;;;;;;;5082967;28;20023;-90
2024/01/16 03:56:44;;;;;;;11.27;3.00;;;;;;;;;;5095764;28;20042;-90
2024/01/16 03:59:09;;;;;;;12.00;3.90;;;;;;;;;;5095360;28;20380;-90
2024/01/16 04:01:37;;;;;;;17.07;4.87;;;;;;;;;;5075737;28;20027;-90
2024/01/16 04:04:02;;;;;;;20.05;5.85;;;;;;;;;;5092632;28;20543;-91
2024/01/16 04:06:29;;;;;;;16.23;6.07;;;;;;;;;;5094752;28;20103;-90
2024/01/16 04:08:54;;;;;;;16.23;7.30;;;;;;;;;;5094826;28;20054;-90
2024/01/16 04:11:20;;;;;;;25.20;7.93;;;;;;;;;;5090491;28;20294;-90
2024/01/16 04:13:45;;;;;;;24.07;8.87;;;;;;;;;;5094884;28;20024;-90
2024/01/16 04:16:12;;;;;;;20.27;8.10;;;;;;;;;;5094265;28;20101;-89
2024/01/16 04:18:40;;;;;;;18.58;7.65;;;;;;;;;;5075189;28;20032;-89
2024/01/16 04:21:05;;;;;;;31.60;7.88;;;;;;;;;;5090551;28;20546;-90
2024/01/16 04:23:31;;;;;;;21.53;8.63;;;;;;;;;;5093253;28;20058;-90
2024/01/16 04:25:56;;;;;;;28.87;8.50;;;;;;;;;;5093603;28;20026;-89
2024/01/16 04:28:21;;;;;;;29.80;8.47;;;;;;;;;;5093067;28;20016;-90
2024/01/16 04:30:46;;;;;;;31.37;9.20;;;;;;;;;;5095130;28;20035;-92
2024/01/16 04:33:12;;;;;;;21.37;7.33;;;;;;;;;;5094086;28;20020;-90
2024/01/16 04:35:37;;;;;;;22.20;8.43;;;;;;;;;;5094230;28;20278;-91
2024/01/16 04:38:03;;;;;;;28.93;8.53;;;;;;;;;;5093408;28;20471;-92
2024/01/16 04:43:46;;;;;;;27.38;8.10;;;;;;;;;;5082537;28;20079;-91
2024/01/16 04:46:11;;;;;;;25.52;7.93;;;;;;;;;;5071411;28;20024;-92
2024/01/16 04:48:36;;;;;;;22.37;7.80;;;;;;;;;;5090411;28;20028;-91
2024/01/16 04:51:01;;;;;;;22.60;8.17;;;;;;;;;;5092767;28;20040;-90
2024/01/16 04:53:27;;;;;;;18.03;7.87;;;;;;;;;;5091429;28;20728;-89
2024/01/16 04:55:52;;;;;;;30.00;8.60;;;;;;;;;;5101837;28;20020;-91
2024/01/16 04:58:18;;;;;;;24.40;8.37;;;;;;;;;;5082551;28;20456;-90
2024/01/16 05:00:43;;;;;;;24.77;8.82;;;;;;;;;;5080538;28;20020;-91
2024/01/16 05:03:09;;;;;;;21.53;8.07;;;;;;;;;;5094903;28;20566;-89
2024/01/16 05:05:34;;;;;;;30.47;9.17;;;;;;;;;;5105763;28;20103;-91
2024/01/16 05:08:00;;;;;;;19.23;7.80;;;;;;;;;;5084063;28;20024;-92
2024/01/16 05:10:26;;;;;;;27.73;7.90;;;;;;;;;;5075303;28;20377;-91
2024/01/16 05:12:51;;;;;;;29.02;9.20;;;;;;;;;;5091570;28;20434;-92
2024/01/16 05:15:16;;;;;;;19.97;8.03;;;;;;;;;;5060498;28;20032;-91
2024/01/16 05:17:41;;;;;;;23.20;8.20;;;;;;;;;;5073553;28;20130;-89
2024/01/16 05:20:08;;;;;;;22.37;8.13;;;;;;;;;;5076650;28;20522;-91
2024/01/16 05:22:33;;;;;;;24.05;8.25;;;;;;;;;;5091610;28;20517;-90
2024/01/16 05:24:59;;;;;;;18.33;8.43;;;;;;;;;;5092632;28;20040;-92
2024/01/16 05:27:25;;;;;;;22.70;8.98;;;;;;;;;;5091795;28;20020;-92
2024/01/16 05:29:50;;;;;;;23.60;8.07;;;;;;;;;;5094051;28;20032;-91
2024/01/16 05:32:15;;;;;;;16.07;7.57;;;;;;;;;;5092978;28;20020;-91
2024/01/16 05:34:41;;;;;;;19.20;7.50;;;;;;;;;;5112476;28;20095;-90
2024/01/16 05:37:06;;;;;;;21.40;8.23;;;;;;;;;;5093266;28;20028;-92
2024/01/16 05:39:31;;;;;;;12.67;6.53;;;;;;;;;;5088063;28;20043;-92
2024/01/16 05:41:56;;;;;;;17.80;7.07;;;;;;;;;;5092220;28;20016;-92
2024/01/16 05:44:22;;;;;;;26.73;8.30;;;;;;;;;;5087239;28;20032;-90
2024/01/16 05:46:47;;;;;;;20.37;6.93;;;;;;;;;;5069039;28;20024;-91
2024/01/16 05:49:12;;;;;;;19.80;7.33;;;;;;;;;;5084046;28;21065;-89
2024/01/16 05:51:37;;;;;;;15.77;6.67;;;;;;;;;;5091032;28;20059;-89
2024/01/16 05:54:03;;;;;;;20.20;7.20;;;;;;;;;;5091432;28;20048;-89
2024/01/16 05:56:28;;;;;;;20.17;7.10;;;;;;;;;;5091781;28;20014;-90
2024/01/16 05:58:53;;;;;;;13.23;6.20;;;;;;;;;;5089842;28;20086;-91
2024/01/16 06:01:19;;;;;;;18.47;6.40;;;;;;;;;;5090764;28;20024;-90
2024/01/16 06:03:46;;;;;;;15.60;6.60;;;;;;;;;;5091358;28;20012;-91
2024/01/16 06:06:11;;;;;;;19.10;6.87;;;;;;;;;;5072660;28;20796;-91
2024/01/16 06:08:37;;;;;;;15.67;6.80;;;;;;;;;;5095415;28;20048;-91
2024/01/16 06:11:02;;;;;;;18.17;5.72;;;;;;;;;;5092662;28;20070;-92
2024/01/16 06:13:27;;;;;;;17.17;5.30;;;;;;;;;;5074380;28;20016;-91
2024/01/16 06:15:52;;;;;;;14.53;6.00;;;;;;;;;;5091196;28;20032;-91
2024/01/16 06:18:25;;;;;;;19.90;6.13;;;;;;;;;;5086539;28;20024;-91
2024/01/16 06:20:50;;;;;;;14.63;6.05;;;;;;;;;;5073194;28;20025;-92
2024/01/16 06:23:15;;;;;;;20.30;5.67;;;;;;;;;;5066294;28;20078;-91
2024/01/16 06:25:40;;;;;;;19.67;6.60;;;;;;;;;;5074167;28;20028;-90
2024/01/16 06:28:07;;;;;;;17.87;6.03;;;;;;;;;;5071989;28;20020;-90
2024/01/16 06:33:35;;;;;;;15.63;5.60;;;;;;;;;;5091216;28;20659;-90
2024/01/16 06:36:01;;;;;;;16.97;5.73;;;;;;;;;;5091050;28;20020;-90
2024/01/16 06:38:26;;;;;;;12.20;5.72;;;;;;;;;;5091015;28;20305;-91
2024/01/16 06:40:52;;;;;;;15.53;5.53;;;;;;;;;;5090171;28;20016;-91
2024/01/16 06:43:17;;;;;;;9.53;4.70;;;;;;;;;;5092265;28;20085;-91
2024/01/16 06:45:43;;;;;;;11.55;5.28;;;;;;;;;;5091626;28;20474;-91
2024/01/16 06:48:08;;;;;;;14.53;5.47;;;;;;;;;;5088213;28;20111;-91
2024/01/16 06:50:33;;;;;;;17.57;5.97;;;;;;;;;;5089472;28;20386;-90
2024/01/16 06:52:58;;;;;;;16.00;4.93;;;;;;;;;;5088366;28;20090;-88
2024/01/16 06:55:24;;;;;;;15.73;4.90;;;;;;;;;;5089455;28;20020;-90
2024/01/16 06:57:49;;;;;;;16.20;5.63;;;;;;;;;;5089400;28;20055;-89
2024/01/16 07:00:14;;;;;;;10.33;4.63;;;;;;;;;;5090444;28;20020;-88
2024/01/16 07:02:43;;;;;;;14.07;4.80;;;;;;;;;;5088862;28;20397;-91
2024/01/16 07:05:09;;;;;;;11.18;4.88;;;;;;;;;;5092896;28;20095;-90
2024/01/16 07:07:34;;;;;;;15.88;5.00;;;;;;;;;;5073116;28;20069;-88
2024/01/16 07:09:59;;;;;;;12.53;4.87;;;;;;;;;;5091733;28;20421;-87
2024/01/16 07:12:24;;;;;;;11.17;5.00;;;;;;;;;;5090873;28;20056;-86
2024/01/16 07:14:50;;;;;;;15.13;5.40;;;;;;;;;;5088810;28;20031;-88
2024/01/16 07:17:15;;;;;;;12.73;5.47;;;;;;;;;;5089987;28;20391;-87
2024/01/16 07:19:41;;;;;;;13.03;5.17;;;;;;;;;;5087181;28;20050;-87
2024/01/16 07:22:06;;;;;;;15.90;5.03;;;;;;;;;;5089889;28;20062;-87
2024/01/16 07:24:31;;;;;;;16.97;5.20;;;;;;;;;;5086210;28;20051;-88
2024/01/16 07:26:57;;;;;;;10.63;5.27;;;;;;;;;;5098811;28;20047;-88
2024/01/16 07:29:22;;;;;;;15.10;5.00;;;;;;;;;;5089456;28;20088;-87
2024/01/16 07:54:05;;;;;;;13.67;4.57;;;;;;;;;;5498914;23;20381;-87
2024/01/16 07:56:30;;;;;;;14.25;4.18;;;;;;;;;;5105479;28;20022;-88
2024/01/16 07:58:55;;;;;;;10.27;4.20;;;;;;;;;;5106115;28;20072;-88
2024/01/16 08:01:21;;;;;;;8.23;4.30;;;;;;;;;;5077921;28;20024;-88
2024/01/16 08:03:46;;;;;;;16.60;4.93;;;;;;;;;;5092203;28;20054;-88
2024/01/16 08:06:11;;;;;;;14.97;4.00;;;;;;;;;;5068685;28;20364;-87
2024/01/16 08:08:36;;;;;;;11.67;4.43;;;;;;;;;;5094586;28;20696;-88
2024/01/16 08:11:02;;;;;;;8.73;3.97;;;;;;;;;;5096008;28;20024;-88
2024/01/16 08:13:28;;;;;;;10.00;3.93;;;;;;;;;;5097372;28;20019;-89
2024/01/16 08:15:53;;;;;;;14.82;4.40;;;;;;;;;;5098787;28;20645;-89
2024/01/16 08:18:18;;;;;;;8.97;4.23;;;;;;;;;;5096529;28;20032;-89
2024/01/16 08:20:43;;;;;;;10.83;3.63;;;;;;;;;;5097028;28;20028;-88
2024/01/16 08:23:09;;;;;;;12.03;4.37;;;;;;;;;;5096493;28;20020;-88
2024/01/16 08:25:34;;;;;;;7.07;3.90;;;;;;;;;;5098831;28;20402;-87
2024/01/16 08:28:00;;;;;;;14.37;4.47;;;;;;;;;;5102073;28;20044;-88
2024/01/16 08:30:25;;;;;;;14.48;4.10;;;;;;;;;;5102990;28;20052;-89
2024/01/16 08:32:51;;;;;;;8.87;4.00;;;;;;;;;;5105570;28;20024;-88
2024/01/16 08:40:26;;;;;;;11.25;3.90;;;;;;;;;;5358929;22;20112;-88
2024/01/16 08:42:54;;;;;;;11.40;4.00;;;;;;;;;;5106569;28;20024;-89
2024/01/16 08:45:20;;;;;;;10.10;4.32;;;;;;;;;;5091209;28;20039;-88
2024/01/16 08:47:45;;;;;;;11.73;4.15;;;;;;;;;;5114161;28;19996;-88
2024/01/16 08:50:10;;;;;;;14.87;4.17;;;;;;;;;;5104287;28;20027;-93
2024/01/16 08:52:35;;;;;;;11.57;4.83;;;;;;;;;;5077008;28;20023;-92
2024/01/16 08:55:11;;;;;;;12.47;4.30;;;;;;;;;;5078529;28;20058;-92
2024/01/16 08:57:36;;;;;;;12.70;3.90;;;;;;;;;;5087404;28;20028;-92
2024/01/16 09:00:03;;;;;;;7.77;4.67;;;;;;;;;;5093908;28;20277;-92
2024/01/16 09:02:28;;;;;;;12.23;5.25;;;;;;;;;;5080413;28;20016;-89
2024/01/16 09:04:54;;;;;;;14.13;4.28;;;;;;;;;;5094748;28;20131;-91
2024/01/16 09:07:19;;;;;;;16.40;4.20;;;;;;;;;;5093780;28;20026;-90
2024/01/16 09:09:44;;;;;;;10.27;4.03;;;;;;;;;;5107199;28;20027;-91
2024/01/16 09:12:10;;;;;;;10.00;4.13;;;;;;;;;;5117189;28;20027;-87
2024/01/16 09:14:35;;;;;;;17.00;4.17;;;;;;;;;;5097915;28;20020;-87
2024/01/16 09:17:00;;;;;;;7.83;4.17;;;;;;;;;;5098534;28;20012;-87
2024/01/16 09:19:25;;;;;;;12.03;4.27;;;;;;;;;;5093509;28;20030;-88
2024/01/16 09:21:50;;;;;;;9.30;4.07;;;;;;;;;;5081317;28;20024;-88
2024/01/16 09:24:16;;;;;;;6.43;3.73;;;;;;;;;;5096654;28;20481;-88
2024/01/16 09:26:41;;;;;;;12.53;3.83;;;;;;;;;;5081054;28;20050;-88
2024/01/16 09:29:07;;;;;;;13.97;4.63;;;;;;;;;;5082571;28;20035;-88
2024/01/16 09:31:32;;;;;;;11.05;3.80;;;;;;;;;;5099534;28;20016;-89
2024/01/16 09:33:57;;;;;;;13.43;4.60;;;;;;;;;;5093636;28;20024;-89
2024/01/16 09:36:22;;;;;;;12.10;4.13;;;;;;;;;;5093246;28;20011;-88
2024/01/16 09:38:48;;;;;;;13.33;4.60;;;;;;;;;;5096462;28;20106;-90
2024/01/16 09:41:13;;;;;;;18.90;4.97;;;;;;;;;;5091721;28;20081;-88
2024/01/16 09:43:39;;;;;;;15.63;5.68;;;;;;;;;;5094194;28;20789;-89
2024/01/16 09:46:05;;;;;;;9.87;3.83;;;;;;;;;;5100456;28;20028;-92
2024/01/16 09:48:31;;;;;;;10.52;4.25;;;;;;;;;;5096724;28;20364;-89
2024/01/16 09:50:56;;;;;;;9.48;3.65;;;;;;;;;;5099165;28;20053;-92
2024/01/16 09:53:22;;;;;;;11.27;3.83;;;;;;;;;;5099951;28;20027;-88
2024/01/16 09:55:49;;;;;;;8.93;3.97;;;;;;;;;;5092973;28;20020;-89
2024/01/16 09:58:14;;;;;;;10.40;4.35;;;;;;;;;;5081770;28;20035;-90
2024/01/16 10:00:41;;;;;;;14.50;4.70;;;;;;;;;;5086539;28;20016;-89
2024/01/16 10:03:07;;;;;;;10.35;4.10;;;;;;;;;;5072557;28;20115;-90
2024/01/16 10:05:33;;;;;;;14.17;4.17;;;;;;;;;;5098168;28;20099;-90
2024/01/16 10:07:58;;;;;;;10.93;4.15;;;;;;;;;;5074173;28;20107;-89
2024/01/16 10:10:28;;;;;;;13.30;4.27;;;;;;;;;;5087854;28;20142;-89
2024/01/16 10:12:53;;;;;;;10.30;4.68;;;;;;;;;;5097146;28;20020;-89
2024/01/16 10:15:19;;;;;;;8.13;3.90;;;;;;;;;;5089643;28;20647;-88
2024/01/16 10:17:44;;;;;;;11.23;3.80;;;;;;;;;;5098688;28;20024;-90
2024/01/16 10:20:13;;;;;;;13.67;4.00;;;;;;;;;;5089592;28;20081;-89
2024/01/16 10:22:40;;;;;;;11.15;4.03;;;;;;;;;;5091027;28;20017;-90
2024/01/16 10:25:05;;;;;;;8.23;3.67;;;;;;;;;;5089311;28;20111;-89
2024/01/16 10:27:31;;;;;;;7.88;3.55;;;;;;;;;;5090900;28;20040;-91
2024/01/16 10:29:57;;;;;;;12.48;3.92;;;;;;;;;;5075930;28;20035;-91
2024/01/16 10:32:29;;;;;;;9.60;4.13;;;;;;;;;;5094278;28;20050;-94
2024/01/16 10:35:10;;;;;;;16.63;4.40;;;;;;;;;;5092203;28;20483;-91
2024/01/16 10:37:49;;;;;;;10.73;4.20;;;;;;;;;;5092469;28;20016;-89
2024/01/16 10:40:27;;;;;;;11.38;4.30;;;;;;;;;;5082712;28;20162;-92
2024/01/16 10:43:12;;;;;;;11.23;4.55;;;;;;;;;;5065159;28;20017;-91
2024/01/16 10:45:38;;;;;;;14.83;4.50;;;;;;;;;;5082389;28;20051;-92
2024/01/16 10:48:07;;;;;;;7.67;4.30;;;;;;;;;;5090313;28;22570;-93
2024/01/16 10:50:32;;;;;;;9.00;4.57;;;;;;;;;;5063417;28;20032;-94
2024/01/16 10:53:05;;;;;;;8.20;4.10;;;;;;;;;;5075791;28;20370;-94
2024/01/16 10:55:31;;;;;;;14.98;4.47;;;;;;;;;;5079092;28;20107;-92
2024/01/16 10:57:56;;;;;;;10.27;4.32;;;;;;;;;;5098777;28;20024;-92
2024/01/16 11:00:22;;;;;;;10.13;4.30;;;;;;;;;;5076402;28;20027;-92
2024/01/16 11:03:07;;;;;;;9.65;3.85;;;;;;;;;;5077887;28;20036;-94
2024/01/16 11:05:33;;;;;;;15.25;4.70;;;;;;;;;;5094566;28;20025;-93
2024/01/16 11:08:01;;;;;;;9.50;4.30;;;;;;;;;;5090352;28;20364;-91
2024/01/16 11:10:27;;;;;;;11.25;4.15;;;;;;;;;;5111576;28;20035;-91
2024/01/16 11:12:52;;;;;;;7.43;4.18;;;;;;;;;;5093633;28;20095;-91
2024/01/16 11:15:18;;;;;;;9.53;4.53;;;;;;;;;;5089402;28;20487;-92
2024/01/16 11:17:44;;;;;;;11.90;4.23;;;;;;;;;;5086982;28;20382;-91
2024/01/16 11:20:11;;;;;;;7.53;4.03;;;;;;;;;;5091188;28;20027;-92
2024/01/16 11:22:38;;;;;;;8.32;4.15;;;;;;;;;;5076161;28;20490;-91
2024/01/16 11:25:07;;;;;;;10.38;4.85;;;;;;;;;;5090831;28;20055;-92
2024/01/16 11:27:34;;;;;;;5.38;3.60;;;;;;;;;;5095067;28;20090;-89
2024/01/16 11:29:59;;;;;;;10.87;4.33;;;;;;;;;;5089168;28;20032;-91
2024/01/16 11:32:44;;;;;;;10.53;3.70;;;;;;;;;;5092295;28;20081;-92
2024/01/16 11:35:09;;;;;;;8.93;4.30;;;;;;;;;;5074936;28;20459;-91
2024/01/16 11:37:36;;;;;;;10.97;3.87;;;;;;;;;;5097015;28;20044;-93
2024/01/16 11:40:14;;;;;;;9.85;4.00;;;;;;;;;;5099227;28;20036;-93
2024/01/16 11:42:42;;;;;;;12.52;4.25;;;;;;;;;;5088627;28;20039;-90
2024/01/16 11:45:08;;;;;;;19.05;4.78;;;;;;;;;;5108466;28;20036;-90
2024/01/16 11:47:33;;;;;;;8.17;4.00;;;;;;;;;;5107781;28;20020;-92
2024/01/16 11:50:27;;;;;;;11.30;4.77;;;;;;;;;;5108240;28;20106;-92
2024/01/16 11:52:52;;;;;;;7.07;4.07;;;;;;;;;;5095560;28;20016;-91
2024/01/16 11:55:32;;;;;;;7.63;3.83;;;;;;;;;;5110882;28;20012;-91
2024/01/16 11:58:06;;;;;;;10.15;3.83;;;;;;;;;;5107180;28;20083;-90
2024/01/16 12:00:32;;;;;;;11.18;3.85;;;;;;;;;;5106724;28;20043;-91
2024/01/16 12:03:01;;;;;;;7.88;3.92;;;;;;;;;;5103343;28;20016;-92
2024/01/16 12:05:26;;;;;;;8.60;3.57;;;;;;;;;;5129737;28;20035;-91
2024/01/16 12:07:53;;;;;;;10.15;3.90;;;;;;;;;;5089847;28;20103;-89
2024/01/16 12:10:19;;;;;;;10.67;4.00;;;;;;;;;;5105795;28;20028;-92
2024/01/16 12:12:45;;;;;;;8.90;3.70;;;;;;;;;;5110273;28;20397;-92
2024/01/16 12:15:16;;;;;;;7.32;4.07;;;;;;;;;;5092970;28;20582;-91
2024/01/16 12:17:50;;;;;;;6.70;3.60;;;;;;;;;;5092417;28;20020;-92
2024/01/16 12:20:17;;;;;;;11.15;4.38;;;;;;;;;;5088113;28;20038;-92
2024/01/16 12:22:43;;;;;;;7.13;3.70;;;;;;;;;;5102223;28;20039;-91
2024/01/16 12:25:08;;;;;;;11.60;4.25;;;;;;;;;;5110020;28;20016;-91
2024/01/16 12:27:34;;;;;;;8.23;3.57;;;;;;;;;;5113056;28;20028;-90
2024/01/16 12:30:09;;;;;;;9.25;3.95;;;;;;;;;;5089025;28;20035;-91
2024/01/16 12:32:34;;;;;;;12.55;3.95;;;;;;;;;;5102968;28;20023;-91
2024/01/16 12:34:59;;;;;;;10.03;4.17;;;;;;;;;;5115058;28;20023;-91
2024/01/16 12:37:24;;;;;;;13.67;3.83;;;;;;;;;;5085374;28;20016;-90
2024/01/16 12:39:51;;;;;;;12.07;3.97;;;;;;;;;;5096646;28;20039;-90
2024/01/16 12:42:17;;;;;;;10.18;4.00;;;;;;;;;;5092301;28;20028;-90
2024/01/16 12:44:42;;;;;;;13.55;4.57;;;;;;;;;;5080145;28;20020;-89
2024/01/16 12:47:08;;;;;;;10.33;3.53;;;;;;;;;;5097881;28;20107;-90
2024/01/16 12:49:39;;;;;;;8.13;3.57;;;;;;;;;;5093215;28;20074;-90
2024/01/16 12:52:20;;;;;;;8.98;3.97;;;;;;;;;;5103130;28;20024;-89
2024/01/16 12:54:46;;;;;;;8.93;3.93;;;;;;;;;;5107082;28;20038;-90
2024/01/16 12:57:19;;;;;;;8.63;4.18;;;;;;;;;;5085925;28;20024;-90
2024/01/16 12:59:45;;;;;;;6.82;3.42;;;;;;;;;;5097039;28;20054;-89
2024/01/16 13:02:11;;;;;;;10.33;3.33;;;;;;;;;;5095880;28;20021;-86
2024/01/16 13:04:36;;;;;;;6.45;4.03;;;;;;;;;;5090612;28;20032;-87
2024/01/16 13:07:05;;;;;;;8.97;3.07;;;;;;;;;;5072823;28;21946;-87
2024/01/16 13:09:31;;;;;;;8.40;3.35;;;;;;;;;;5075156;28;20119;-87
2024/01/16 13:11:58;;;;;;;13.73;3.40;;;;;;;;;;5092521;28;20486;-88
2024/01/16 13:14:23;;;;;;;7.50;3.33;;;;;;;;;;5090822;28;20102;-88
2024/01/16 13:16:49;;;;;;;7.73;3.53;;;;;;;;;;5093583;28;20369;-87
2024/01/16 13:19:21;;;;;;;6.72;3.20;;;;;;;;;;5094280;28;20070;-87
2024/01/16 13:21:47;;;;;;;7.38;3.42;;;;;;;;;;5092254;28;20092;-88
2024/01/16 13:24:17;;;;;;;7.30;3.63;;;;;;;;;;5091975;28;20044;-88
2024/01/16 13:26:43;;;;;;;9.82;3.10;;;;;;;;;;5095797;28;20458;-88
2024/01/16 13:39:28;;;;;;;8.98;4.10;;;;;;;;;;5471187;22;20411;-88
2024/01/16 13:41:54;;;;;;;10.83;3.70;;;;;;;;;;5068713;28;20025;-88
2024/01/16 13:44:19;;;;;;;11.60;4.23;;;;;;;;;;5069423;28;20020;-88
2024/01/16 13:46:44;;;;;;;9.77;3.90;;;;;;;;;;5044409;28;20028;-89
2024/01/16 13:51:45;;;;;;;10.35;4.00;;;;;;;;;;5250526;22;20056;-88
2024/01/16 13:54:10;;;;;;;8.33;4.10;;;;;;;;;;5035538;28;20391;-88
2024/01/16 13:56:35;;;;;;;12.33;5.37;;;;;;;;;;5069442;28;20032;-89
2024/01/16 13:59:00;;;;;;;8.20;3.20;;;;;;;;;;5071057;28;20055;-89
2024/01/16 14:01:27;;;;;;;10.57;4.30;;;;;;;;;;5052700;28;20032;-88
2024/01/16 14:03:52;;;;;;;7.82;3.80;;;;;;;;;;5071088;28;20028;-88
2024/01/16 14:06:17;;;;;;;6.63;3.87;;;;;;;;;;5075523;28;20571;-88
2024/01/16 14:08:43;;;;;;;9.87;3.83;;;;;;;;;;5090171;28;20467;-88
2024/01/16 14:11:08;;;;;;;9.93;4.13;;;;;;;;;;5089483;28;20521;-88
2024/01/16 14:13:33;;;;;;;11.27;4.67;;;;;;;;;;5088490;28;20416;-88
2024/01/16 14:15:58;;;;;;;7.40;4.37;;;;;;;;;;5090802;28;20024;-88
2024/01/16 14:18:23;;;;;;;12.90;4.30;;;;;;;;;;5089584;28;20020;-88
2024/01/16 14:20:49;;;;;;;6.47;3.47;;;;;;;;;;5090142;28;20033;-88
2024/01/16 14:23:14;;;;;;;9.63;4.27;;;;;;;;;;5089486;28;20039;-88
2024/01/16 14:25:39;;;;;;;12.13;3.93;;;;;;;;;;5088423;28;20035;-89
2024/01/16 14:28:05;;;;;;;8.73;3.60;;;;;;;;;;5089024;28;20057;-88
2024/01/16 14:30:31;;;;;;;7.28;3.75;;;;;;;;;;5089753;28;20133;-89
2024/01/16 14:32:57;;;;;;;5.73;3.83;;;;;;;;;;5090481;28;20047;-89
2024/01/16 14:35:23;;;;;;;9.37;4.17;;;;;;;;;;5089970;28;21320;-89
2024/01/16 14:37:49;;;;;;;8.57;4.60;;;;;;;;;;5072506;28;20773;-89
2024/01/16 14:40:20;;;;;;;7.28;3.78;;;;;;;;;;5090181;28;20050;-89
2024/01/16 14:42:47;;;;;;;11.40;3.67;;;;;;;;;;5075798;28;20015;-89
2024/01/16 14:45:13;;;;;;;10.77;4.15;;;;;;;;;;5069716;28;20540;-89
2024/01/16 14:47:38;;;;;;;7.90;3.80;;;;;;;;;;5089988;28;20016;-89
2024/01/16 14:50:04;;;;;;;8.73;4.43;;;;;;;;;;5089107;28;20463;-88
2024/01/16 14:52:31;;;;;;;10.53;4.40;;;;;;;;;;5089870;28;20016;-88
2024/01/16 14:54:56;;;;;;;11.27;3.80;;;;;;;;;;5087525;28;20093;-89
2024/01/16 14:57:21;;;;;;;8.03;3.90;;;;;;;;;;5103727;28;20032;-88
2024/01/16 14:59:47;;;;;;;7.17;3.03;;;;;;;;;;5097109;28;20048;-89
2024/01/16 15:02:12;;;;;;;8.52;3.58;;;;;;;;;;5070864;28;20048;-89
2024/01/16 15:04:39;;;;;;;6.13;3.60;;;;;;;;;;5090927;28;20410;-90
2024/01/16 15:07:04;;;;;;;7.43;3.75;;;;;;;;;;5088227;28;20060;-89
2024/01/16 15:09:30;;;;;;;8.87;3.77;;;;;;;;;;5089345;28;20043;-89
2024/01/16 15:11:55;;;;;;;8.23;3.53;;;;;;;;;;5089468;28;20479;-87
2024/01/16 15:14:20;;;;;;;12.33;3.60;;;;;;;;;;5089367;28;20535;-88
2024/01/16 15:16:45;;;;;;;7.47;3.50;;;;;;;;;;5091500;28;20055;-89
2024/01/16 15:19:10;;;;;;;10.03;4.00;;;;;;;;;;5092946;28;20112;-88
2024/01/16 15:21:36;;;;;;;7.33;3.77;;;;;;;;;;5091357;28;20529;-87
2024/01/16 15:24:02;;;;;;;9.50;3.90;;;;;;;;;;5075025;28;20062;-89
2024/01/16 15:26:27;;;;;;;11.37;4.30;;;;;;;;;;5094569;28;20777;-89
2024/01/16 15:28:52;;;;;;;6.67;3.60;;;;;;;;;;5080356;28;20531;-89
2024/01/16 15:31:17;;;;;;;6.63;4.20;;;;;;;;;;5074106;28;20020;-90
2024/01/16 15:33:43;;;;;;;6.43;3.93;;;;;;;;;;5086539;28;20046;-88
2024/01/16 15:36:10;;;;;;;13.80;3.90;;;;;;;;;;5102271;28;20028;-89
2024/01/16 15:38:35;;;;;;;11.60;3.70;;;;;;;;;;5084239;28;20024;-90
2024/01/16 15:41:01;;;;;;;7.50;4.20;;;;;;;;;;5084344;28;20282;-89
2024/01/16 15:43:26;;;;;;;7.00;3.53;;;;;;;;;;5099452;28;20016;-89
2024/01/16 15:45:52;;;;;;;7.93;3.80;;;;;;;;;;5093682;28;20305;-88
2024/01/16 15:48:17;;;;;;;10.73;3.67;;;;;;;;;;5103455;28;20031;-88
2024/01/16 15:50:42;;;;;;;9.27;4.10;;;;;;;;;;5086398;28;20035;-89
2024/01/16 15:53:08;;;;;;;10.23;4.00;;;;;;;;;;5104023;28;20016;-89
2024/01/16 15:55:33;;;;;;;9.55;4.22;;;;;;;;;;5102288;28;20067;-87
2024/01/16 15:57:59;;;;;;;10.40;3.93;;;;;;;;;;5096186;28;20411;-89
2024/01/16 16:00:24;;;;;;;17.70;4.00;;;;;;;;;;5060630;28;20064;-89
2024/01/16 16:02:49;;;;;;;7.67;3.70;;;;;;;;;;5082570;28;20042;-89
2024/01/16 16:05:15;;;;;;;7.17;3.70;;;;;;;;;;5093129;28;20464;-90